Upton, New York
Current Conditions -  °F | °C
As of 10:56 PM on Tuesday 21 Oct 2014 (Local Time) from KHWV Reporting Station
Overcast Overcast  
Wind Chill: 58°   Ceiling: 4700
Heat Index: 58°   Visibility: 10mi
Dew Point: 55°   Wind: 5mph
Humidity: 90%   Direction: NA
Pressure: 29.92"   Gusts: NA
Location:  40.87°N, 72.89°W
Report Text: KHWV 220256Z AUTO VRB04KT 10SM OVC047 14/13 A2992 RMK AO2 RAB16E43 SLP130 P0009 60009 T01440128 51015 TSNO
Loading
Personal Weather Stations






























Interactive Weather Map
Tropical Storm Tracking
New forecast layout! Learn more

10-Day Weather Forecast

Advertisements
Track Severe Weather on mobile